Arezzo, Italy

7:53 AM CET on March 01, 2015 (GMT +0100)
Arezzo ITIS | Change Station
CLOSE
Current Station
Personal Weather Station
Location: Arezzo, TOSCANA
Elevation: 833 ft
Nearby Weather Stations

Elev 833 ft 43.46 °N, 11.87 °E | Updated 3 minutes ago

Partly Cloudy
Partly Cloudy
37.4 °F
Feels Like 37 °F
N
0.0
Wind Variable Wind from ESE
Gusts 0.0 mph

Today
High -- | Low -- °F
--% Chance of Precip.
Yesterday
High -- | Low -- °F
Precip. -- in
6:49 AM 6:00 PM
Waxing Gibbous, 83% visible
Pressure 30.06 in
Visibility 6.2 miles
Clouds Few 5000 ft
Windchill 37 °F
Dew Point 34 °F
Humidity 89%
Rainfall 0.00 in
Snow Depth Not available.
UV 0 out of 12
Pollen Not available.
Air Quality Not available.
Flu Activity Not available.
METAR LIRQ 010620Z VRB02KT 9999 FEW050 02/01 Q1018

More Conditions Fewer Conditions

Pressure 30.06 in
Visibility 6.2 miles
Clouds Few 5000 ft
Windchill 37 °F
Dew Point 34 °F
Humidity 89%
Rainfall 0.00 in
Snow Depth Not available.
UV 0 out of 12
Pollen Not available.
Air Quality Not available.
Flu Activity Not available.
METAR LIRQ 010620Z VRB02KT 9999 FEW050 02/01 Q1018

More Conditions Fewer Conditions

10-Day Weather Forecast

Almanac

Astronomy

Mar. 01, 2015 Rise Set
Actual Time
Civil Twilight
Nautical Twilight
Astronomical Twilight
Moon
Length of Visible Light
Length of Day
Tomorrow will be .
, % of the Moon is Illuminated

Today's Extremes

Country Highs Country Lows

Community

WunderPhotos

Upload Photos

1,801,345 photos uploaded!

WunderBlogs® & News

Nearby

Air Quality

  Air Quality AQ Index Pollutant
Not available.

Snow Depth

Station Depth Elevation

Earthquake Activity

City Distance Mag. Time & Date
Minimum magnitude displayed is 2.5.

Coastal Water Temperatures

Place Temperature

Nearby Weather Stations